Gustavsfors, Sweden

3:32 PM CEST on September 29, 2016 (GMT +0200)
Via dei Giardini | | Change Station

Elev 452 ft 60.14 °N, 13.45 °E | Updated 3 minutes ago

Scattered Clouds
Scattered Clouds
62.1 °F
Feels Like 62.1 °F
N
1.2
Wind Variable Wind from WSW
Gusts 5.6 mph

Today
High -- | Low -- °F
--% Chance of Precip.
Yesterday
High -- | Low -- °F
Precip. -- in
Pressure 29.21 in
Visibility 6.2 miles
Clouds Scattered Clouds 3600 ft
Dew Point 51 °F
Humidity 66%
Rainfall 0.00 in
Snow Depth Not available.
7:06 AM 6:42 PM
Waning Crescent, 2% visible
METAR ESOK 291320Z 23019KT 9999 SCT036 16/09 Q0989
Pressure 29.21 in
Visibility 6.2 miles
Clouds Scattered Clouds 3600 ft
Dew Point 51 °F
Humidity 66%
Rainfall 0.00 in
Snow Depth Not available.
7:06 AM 6:42 PM
Waning Crescent, 2% visible
METAR ESOK 291320Z 23019KT 9999 SCT036 16/09 Q0989

10-Day Weather Forecast

×

Almanac

Astronomy

Sep. 29, 2016 Rise Set
Actual Time
Civil Twilight
Nautical Twilight
Astronomical Twilight
Moon
Length of Visible Light
Length of Day
Tomorrow will be .
, % of the Moon is Illuminated

Today's Extremes

Country Highs Country Lows

Community

WunderPhotos

Upload Photos

1,942,470 photos uploaded!

WunderBlog® & News

Nearby

Air Quality

  Air Quality AQ Index Pollutant
Not available.

Snow Depth

Station Depth Elevation

Earthquake Activity

City Distance Mag. Time & Date
Minimum magnitude displayed is 2.5.

Coastal Water Temperatures

Place Temperature

Stations

Nearby Weather Stations

Station Location Temp. Windchill Dew Point Humidity Wind Precip. Elev Updated Type